sensor_id;sensor_type;location;lat;lon;timestamp;temperature;humidity
69823;SHT31;57119;52.516;13.508;2024-03-07T00:00:02;6.24;99.99
69823;SHT31;57119;52.516;13.508;2024-03-07T00:02:29;6.24;99.99
69823;SHT31;57119;52.516;13.508;2024-03-07T00:04:54;6.27;99.99
69823;SHT31;57119;52.516;13.508;2024-03-07T00:07:20;6.20;99.99
69823;SHT31;57119;52.516;13.508;2024-03-07T00:09:46;6.17;99.99
69823;SHT31;57119;52.516;13.508;2024-03-07T00:12:11;6.24;99.99
69823;SHT31;57119;52.516;13.508;2024-03-07T00:14:37;6.22;99.99
69823;SHT31;57119;52.516;13.508;2024-03-07T00:17:02;6.20;99.99
69823;SHT31;57119;52.516;13.508;2024-03-07T00:19:28;6.24;99.99
69823;SHT31;57119;52.516;13.508;2024-03-07T00:21:56;6.25;99.99
69823;SHT31;57119;52.516;13.508;2024-03-07T00:24:22;6.29;99.99
69823;SHT31;57119;52.516;13.508;2024-03-07T00:26:48;6.22;99.99
69823;SHT31;57119;52.516;13.508;2024-03-07T00:29:15;6.27;99.99
69823;SHT31;57119;52.516;13.508;2024-03-07T00:31:43;6.27;99.99
69823;SHT31;57119;52.516;13.508;2024-03-07T00:34:08;6.24;99.99
69823;SHT31;57119;52.516;13.508;2024-03-07T00:36:35;6.35;99.99
69823;SHT31;57119;52.516;13.508;2024-03-07T00:39:00;6.34;99.99
69823;SHT31;57119;52.516;13.508;2024-03-07T00:41:26;6.29;99.99
69823;SHT31;57119;52.516;13.508;2024-03-07T00:43:51;6.39;99.99
69823;SHT31;57119;52.516;13.508;2024-03-07T00:46:17;6.38;99.99
69823;SHT31;57119;52.516;13.508;2024-03-07T00:48:42;6.27;99.99
69823;SHT31;57119;52.516;13.508;2024-03-07T00:51:07;6.29;99.99
69823;SHT31;57119;52.516;13.508;2024-03-07T00:53:34;6.27;99.99
69823;SHT31;57119;52.516;13.508;2024-03-07T00:55:59;6.31;99.99
69823;SHT31;57119;52.516;13.508;2024-03-07T00:58:25;6.20;99.99
69823;SHT31;57119;52.516;13.508;2024-03-07T01:00:50;6.29;99.99
69823;SHT31;57119;52.516;13.508;2024-03-07T01:03:16;6.25;99.99
69823;SHT31;57119;52.516;13.508;2024-03-07T01:05:43;6.17;99.99
69823;SHT31;57119;52.516;13.508;2024-03-07T01:08:09;6.10;99.99
69823;SHT31;57119;52.516;13.508;2024-03-07T01:10:34;6.20;99.99
69823;SHT31;57119;52.516;13.508;2024-03-07T01:13:00;6.01;99.99
69823;SHT31;57119;52.516;13.508;2024-03-07T01:15:26;6.10;99.99
69823;SHT31;57119;52.516;13.508;2024-03-07T01:17:52;6.01;99.99
69823;SHT31;57119;52.516;13.508;2024-03-07T01:20:18;5.98;99.99
69823;SHT31;57119;52.516;13.508;2024-03-07T01:22:44;6.04;99.99
69823;SHT31;57119;52.516;13.508;2024-03-07T01:25:09;6.10;99.99
69823;SHT31;57119;52.516;13.508;2024-03-07T01:27:35;6.07;99.99
69823;SHT31;57119;52.516;13.508;2024-03-07T01:30:00;5.97;99.99
69823;SHT31;57119;52.516;13.508;2024-03-07T01:32:27;6.03;99.99
69823;SHT31;57119;52.516;13.508;2024-03-07T01:34:53;6.01;99.99
69823;SHT31;57119;52.516;13.508;2024-03-07T01:37:18;5.81;99.99
69823;SHT31;57119;52.516;13.508;2024-03-07T01:39:44;5.83;99.99
69823;SHT31;57119;52.516;13.508;2024-03-07T01:42:09;5.73;99.99
69823;SHT31;57119;52.516;13.508;2024-03-07T01:44:34;5.63;99.99
69823;SHT31;57119;52.516;13.508;2024-03-07T01:47:00;5.63;99.99
69823;SHT31;57119;52.516;13.508;2024-03-07T01:49:31;5.62;99.99
69823;SHT31;57119;52.516;13.508;2024-03-07T01:51:58;5.55;99.99
69823;SHT31;57119;52.516;13.508;2024-03-07T01:54:25;5.42;99.99
69823;SHT31;57119;52.516;13.508;2024-03-07T01:56:50;5.25;99.99
69823;SHT31;57119;52.516;13.508;2024-03-07T01:59:17;5.12;99.99
69823;SHT31;57119;52.516;13.508;2024-03-07T02:01:45;5.04;99.99
69823;SHT31;57119;52.516;13.508;2024-03-07T02:04:12;4.88;99.99
69823;SHT31;57119;52.516;13.508;2024-03-07T02:06:37;4.80;99.99
69823;SHT31;57119;52.516;13.508;2024-03-07T02:09:03;4.73;99.99
69823;SHT31;57119;52.516;13.508;2024-03-07T02:11:31;4.73;99.99
69823;SHT31;57119;52.516;13.508;2024-03-07T02:13:56;4.57;99.99
69823;SHT31;57119;52.516;13.508;2024-03-07T02:16:21;4.46;99.99
69823;SHT31;57119;52.516;13.508;2024-03-07T02:18:47;4.43;99.99
69823;SHT31;57119;52.516;13.508;2024-03-07T02:21:13;4.32;99.99
69823;SHT31;57119;52.516;13.508;2024-03-07T02:23:38;4.33;99.99
69823;SHT31;57119;52.516;13.508;2024-03-07T02:26:04;4.21;99.99
69823;SHT31;57119;52.516;13.508;2024-03-07T02:28:30;4.22;99.99
69823;SHT31;57119;52.516;13.508;2024-03-07T02:30:55;4.16;99.99
69823;SHT31;57119;52.516;13.508;2024-03-07T02:33:20;4.06;99.99
69823;SHT31;57119;52.516;13.508;2024-03-07T02:35:46;4.02;99.99
69823;SHT31;57119;52.516;13.508;2024-03-07T02:38:12;4.06;99.99
69823;SHT31;57119;52.516;13.508;2024-03-07T02:40:37;3.98;99.99
69823;SHT31;57119;52.516;13.508;2024-03-07T02:43:02;3.91;99.99
69823;SHT31;57119;52.516;13.508;2024-03-07T02:45:32;3.91;99.99
69823;SHT31;57119;52.516;13.508;2024-03-07T02:47:57;3.87;99.99
69823;SHT31;57119;52.516;13.508;2024-03-07T02:50:22;3.84;99.99
69823;SHT31;57119;52.516;13.508;2024-03-07T02:52:48;3.78;99.99
69823;SHT31;57119;52.516;13.508;2024-03-07T02:55:15;3.67;99.99
69823;SHT31;57119;52.516;13.508;2024-03-07T02:57:40;3.56;99.99
69823;SHT31;57119;52.516;13.508;2024-03-07T03:00:06;3.59;99.99
69823;SHT31;57119;52.516;13.508;2024-03-07T03:02:45;3.64;99.99
69823;SHT31;57119;52.516;13.508;2024-03-07T03:05:10;3.69;99.99
69823;SHT31;57119;52.516;13.508;2024-03-07T03:07:35;3.66;99.99
69823;SHT31;57119;52.516;13.508;2024-03-07T03:10:01;3.64;99.99
69823;SHT31;57119;52.516;13.508;2024-03-07T03:12:30;3.57;99.99
69823;SHT31;57119;52.516;13.508;2024-03-07T03:14:56;3.52;99.99
69823;SHT31;57119;52.516;13.508;2024-03-07T03:17:22;3.46;99.99
69823;SHT31;57119;52.516;13.508;2024-03-07T03:19:48;3.44;99.99
69823;SHT31;57119;52.516;13.508;2024-03-07T03:22:15;3.35;99.99
69823;SHT31;57119;52.516;13.508;2024-03-07T03:24:40;3.37;99.99
69823;SHT31;57119;52.516;13.508;2024-03-07T03:27:06;3.36;99.99
69823;SHT31;57119;52.516;13.508;2024-03-07T03:29:33;3.39;99.99
69823;SHT31;57119;52.516;13.508;2024-03-07T03:31:59;3.25;99.99
69823;SHT31;57119;52.516;13.508;2024-03-07T03:34:24;3.22;99.99
69823;SHT31;57119;52.516;13.508;2024-03-07T03:36:51;3.16;99.99
69823;SHT31;57119;52.516;13.508;2024-03-07T03:39:17;3.12;99.99
69823;SHT31;57119;52.516;13.508;2024-03-07T03:41:42;3.12;99.99
69823;SHT31;57119;52.516;13.508;2024-03-07T03:44:07;3.05;99.99
69823;SHT31;57119;52.516;13.508;2024-03-07T03:46:33;3.04;99.99
69823;SHT31;57119;52.516;13.508;2024-03-07T03:48:58;3.02;99.99
69823;SHT31;57119;52.516;13.508;2024-03-07T03:51:23;3.04;99.99
69823;SHT31;57119;52.516;13.508;2024-03-07T03:53:50;3.12;99.99
69823;SHT31;57119;52.516;13.508;2024-03-07T03:56:16;3.11;99.99
69823;SHT31;57119;52.516;13.508;2024-03-07T03:58:42;2.95;99.99
69823;SHT31;57119;52.516;13.508;2024-03-07T04:01:08;2.89;99.99
69823;SHT31;57119;52.516;13.508;2024-03-07T04:03:38;2.84;99.99
69823;SHT31;57119;52.516;13.508;2024-03-07T04:06:03;2.98;99.99
69823;SHT31;57119;52.516;13.508;2024-03-07T04:08:29;3.04;99.99
69823;SHT31;57119;52.516;13.508;2024-03-07T04:10:55;2.97;99.99
69823;SHT31;57119;52.516;13.508;2024-03-07T04:13:20;2.95;99.99
69823;SHT31;57119;52.516;13.508;2024-03-07T04:15:47;2.95;99.99
69823;SHT31;57119;52.516;13.508;2024-03-07T04:18:13;2.84;99.99
69823;SHT31;57119;52.516;13.508;2024-03-07T04:20:38;2.85;99.99
69823;SHT31;57119;52.516;13.508;2024-03-07T04:23:04;2.80;99.99
69823;SHT31;57119;52.516;13.508;2024-03-07T04:25:31;2.77;99.99
69823;SHT31;57119;52.516;13.508;2024-03-07T04:27:58;2.77;99.99
69823;SHT31;57119;52.516;13.508;2024-03-07T04:30:23;2.74;99.99
69823;SHT31;57119;52.516;13.508;2024-03-07T04:32:49;2.70;99.99
69823;SHT31;57119;52.516;13.508;2024-03-07T04:35:14;2.73;99.99
69823;SHT31;57119;52.516;13.508;2024-03-07T04:37:39;2.67;99.99
69823;SHT31;57119;52.516;13.508;2024-03-07T04:40:07;2.62;99.99
69823;SHT31;57119;52.516;13.508;2024-03-07T04:42:43;2.62;99.99
69823;SHT31;57119;52.516;13.508;2024-03-07T04:45:10;2.70;99.99
69823;SHT31;57119;52.516;13.508;2024-03-07T04:47:38;2.64;99.99
69823;SHT31;57119;52.516;13.508;2024-03-07T04:50:04;2.64;99.99
69823;SHT31;57119;52.516;13.508;2024-03-07T04:52:29;2.53;99.99
69823;SHT31;57119;52.516;13.508;2024-03-07T04:54:55;2.46;99.99
69823;SHT31;57119;52.516;13.508;2024-03-07T04:57:20;2.40;99.99
69823;SHT31;57119;52.516;13.508;2024-03-07T04:59:45;2.41;99.99
69823;SHT31;57119;52.516;13.508;2024-03-07T05:02:11;2.40;99.99
69823;SHT31;57119;52.516;13.508;2024-03-07T05:04:36;2.33;99.99
69823;SHT31;57119;52.516;13.508;2024-03-07T05:07:02;2.25;99.99
69823;SHT31;57119;52.516;13.508;2024-03-07T05:09:28;2.22;99.99
69823;SHT31;57119;52.516;13.508;2024-03-07T05:11:54;2.10;99.99
69823;SHT31;57119;52.516;13.508;2024-03-07T05:14:20;2.05;99.99
69823;SHT31;57119;52.516;13.508;2024-03-07T05:16:45;1.94;99.99
69823;SHT31;57119;52.516;13.508;2024-03-07T05:19:11;1.91;99.99
69823;SHT31;57119;52.516;13.508;2024-03-07T05:21:36;1.91;99.99
69823;SHT31;57119;52.516;13.508;2024-03-07T05:24:08;1.94;99.99
69823;SHT31;57119;52.516;13.508;2024-03-07T05:26:37;2.10;99.99
69823;SHT31;57119;52.516;13.508;2024-03-07T05:29:07;2.15;99.99
69823;SHT31;57119;52.516;13.508;2024-03-07T05:31:37;2.02;99.99
69823;SHT31;57119;52.516;13.508;2024-03-07T05:34:04;2.01;99.99
69823;SHT31;57119;52.516;13.508;2024-03-07T05:36:34;1.97;99.99
69823;SHT31;57119;52.516;13.508;2024-03-07T05:39:00;1.99;99.99
69823;SHT31;57119;52.516;13.508;2024-03-07T05:41:28;2.06;99.99
69823;SHT31;57119;52.516;13.508;2024-03-07T05:43:55;1.98;99.99
69823;SHT31;57119;52.516;13.508;2024-03-07T05:46:21;2.13;99.99
69823;SHT31;57119;52.516;13.508;2024-03-07T05:48:46;2.15;99.99
69823;SHT31;57119;52.516;13.508;2024-03-07T05:51:17;2.15;99.99
69823;SHT31;57119;52.516;13.508;2024-03-07T05:53:43;2.26;99.99
69823;SHT31;57119;52.516;13.508;2024-03-07T05:56:08;2.16;99.99
69823;SHT31;57119;52.516;13.508;2024-03-07T05:58:34;2.16;99.99
69823;SHT31;57119;52.516;13.508;2024-03-07T06:01:00;2.10;99.99
69823;SHT31;57119;52.516;13.508;2024-03-07T06:03:25;2.15;99.99
69823;SHT31;57119;52.516;13.508;2024-03-07T06:05:51;2.16;99.99
69823;SHT31;57119;52.516;13.508;2024-03-07T06:08:20;2.20;99.99
69823;SHT31;57119;52.516;13.508;2024-03-07T06:10:47;2.16;99.99
69823;SHT31;57119;52.516;13.508;2024-03-07T06:13:14;2.16;99.99
69823;SHT31;57119;52.516;13.508;2024-03-07T06:15:39;2.19;99.99
69823;SHT31;57119;52.516;13.508;2024-03-07T06:18:06;2.20;99.99
69823;SHT31;57119;52.516;13.508;2024-03-07T06:20:33;2.34;99.99
69823;SHT31;57119;52.516;13.508;2024-03-07T06:23:00;2.73;99.99
69823;SHT31;57119;52.516;13.508;2024-03-07T06:25:28;3.02;99.99
69823;SHT31;57119;52.516;13.508;2024-03-07T06:28:05;3.40;99.99
69823;SHT31;57119;52.516;13.508;2024-03-07T06:30:35;3.71;99.99
69823;SHT31;57119;52.516;13.508;2024-03-07T06:33:01;3.87;99.99
69823;SHT31;57119;52.516;13.508;2024-03-07T06:35:26;4.25;99.99
69823;SHT31;57119;52.516;13.508;2024-03-07T06:37:52;4.42;99.99
69823;SHT31;57119;52.516;13.508;2024-03-07T06:40:17;4.50;99.14
69823;SHT31;57119;52.516;13.508;2024-03-07T06:42:46;4.73;98.32
69823;SHT31;57119;52.516;13.508;2024-03-07T06:45:12;4.81;97.64
69823;SHT31;57119;52.516;13.508;2024-03-07T06:47:37;5.18;96.94
69823;SHT31;57119;52.516;13.508;2024-03-07T06:50:03;5.35;95.48
69823;SHT31;57119;52.516;13.508;2024-03-07T06:52:29;5.59;95.18
69823;SHT31;57119;52.516;13.508;2024-03-07T06:54:54;5.69;94.43
69823;SHT31;57119;52.516;13.508;2024-03-07T06:57:19;5.81;94.07
69823;SHT31;57119;52.516;13.508;2024-03-07T06:59:45;5.87;93.00
69823;SHT31;57119;52.516;13.508;2024-03-07T07:02:10;5.77;93.21
69823;SHT31;57119;52.516;13.508;2024-03-07T07:04:36;5.89;92.61
69823;SHT31;57119;52.516;13.508;2024-03-07T07:07:13;6.11;92.55
69823;SHT31;57119;52.516;13.508;2024-03-07T07:09:39;5.94;92.12
69823;SHT31;57119;52.516;13.508;2024-03-07T07:12:05;5.74;91.03
69823;SHT31;57119;52.516;13.508;2024-03-07T07:14:30;5.94;91.91
69823;SHT31;57119;52.516;13.508;2024-03-07T07:16:56;5.85;91.88
69823;SHT31;57119;52.516;13.508;2024-03-07T07:19:22;5.53;92.16
69823;SHT31;57119;52.516;13.508;2024-03-07T07:21:47;5.55;92.34
69823;SHT31;57119;52.516;13.508;2024-03-07T07:24:18;5.69;91.82
69823;SHT31;57119;52.516;13.508;2024-03-07T07:26:44;6.21;90.73
69823;SHT31;57119;52.516;13.508;2024-03-07T07:29:10;6.69;89.70
69823;SHT31;57119;52.516;13.508;2024-03-07T07:31:36;7.07;88.11
69823;SHT31;57119;52.516;13.508;2024-03-07T07:34:01;7.27;86.77
69823;SHT31;57119;52.516;13.508;2024-03-07T07:36:29;7.52;86.30
69823;SHT31;57119;52.516;13.508;2024-03-07T07:38:54;7.86;85.69
69823;SHT31;57119;52.516;13.508;2024-03-07T07:41:20;8.44;84.09
69823;SHT31;57119;52.516;13.508;2024-03-07T07:43:45;8.54;82.69
69823;SHT31;57119;52.516;13.508;2024-03-07T07:46:10;9.08;82.51
69823;SHT31;57119;52.516;13.508;2024-03-07T07:48:36;9.09;80.67
69823;SHT31;57119;52.516;13.508;2024-03-07T07:51:01;9.62;80.29
69823;SHT31;57119;52.516;13.508;2024-03-07T07:53:30;10.09;78.72
69823;SHT31;57119;52.516;13.508;2024-03-07T07:55:55;8.72;79.56
69823;SHT31;57119;52.516;13.508;2024-03-07T07:58:21;9.94;78.54
69823;SHT31;57119;52.516;13.508;2024-03-07T08:00:46;9.82;78.13
69823;SHT31;57119;52.516;13.508;2024-03-07T08:03:14;10.01;76.89
69823;SHT31;57119;52.516;13.508;2024-03-07T08:05:40;10.73;76.36
69823;SHT31;57119;52.516;13.508;2024-03-07T08:08:08;11.21;75.25
69823;SHT31;57119;52.516;13.508;2024-03-07T08:10:37;10.61;75.72
69823;SHT31;57119;52.516;13.508;2024-03-07T08:13:04;11.53;74.06
69823;SHT31;57119;52.516;13.508;2024-03-07T08:15:31;12.27;73.13
69823;SHT31;57119;52.516;13.508;2024-03-07T08:17:57;11.91;72.69
69823;SHT31;57119;52.516;13.508;2024-03-07T08:20:25;11.77;72.25
69823;SHT31;57119;52.516;13.508;2024-03-07T08:22:54;12.11;71.78
69823;SHT31;57119;52.516;13.508;2024-03-07T08:25:21;12.05;72.78
69823;SHT31;57119;52.516;13.508;2024-03-07T08:27:49;12.86;70.82
69823;SHT31;57119;52.516;13.508;2024-03-07T08:30:15;13.48;69.82
69823;SHT31;57119;52.516;13.508;2024-03-07T08:32:43;13.18;69.18
69823;SHT31;57119;52.516;13.508;2024-03-07T08:35:09;13.24;69.28
69823;SHT31;57119;52.516;13.508;2024-03-07T08:37:40;12.13;70.77
69823;SHT31;57119;52.516;13.508;2024-03-07T08:40:06;13.28;69.67
69823;SHT31;57119;52.516;13.508;2024-03-07T08:42:39;13.96;68.94
69823;SHT31;57119;52.516;13.508;2024-03-07T08:45:07;14.24;67.75
69823;SHT31;57119;52.516;13.508;2024-03-07T08:47:36;15.15;66.40
69823;SHT31;57119;52.516;13.508;2024-03-07T08:50:02;15.08;65.31
69823;SHT31;57119;52.516;13.508;2024-03-07T08:52:34;14.95;65.04
69823;SHT31;57119;52.516;13.508;2024-03-07T08:55:05;15.16;64.85
69823;SHT31;57119;52.516;13.508;2024-03-07T08:57:31;15.58;64.22
69823;SHT31;57119;52.516;13.508;2024-03-07T08:59:56;14.79;64.36
69823;SHT31;57119;52.516;13.508;2024-03-07T09:02:22;15.88;63.13
69823;SHT31;57119;52.516;13.508;2024-03-07T09:04:49;15.54;62.76
69823;SHT31;57119;52.516;13.508;2024-03-07T09:07:14;14.98;62.01
69823;SHT31;57119;52.516;13.508;2024-03-07T09:09:43;14.58;65.18
69823;SHT31;57119;52.516;13.508;2024-03-07T09:12:08;16.15;62.57
69823;SHT31;57119;52.516;13.508;2024-03-07T09:14:34;16.48;61.70
69823;SHT31;57119;52.516;13.508;2024-03-07T09:17:01;16.59;61.15
69823;SHT31;57119;52.516;13.508;2024-03-07T09:19:26;17.10;59.14
69823;SHT31;57119;52.516;13.508;2024-03-07T09:21:54;17.34;59.43
69823;SHT31;57119;52.516;13.508;2024-03-07T09:24:20;17.65;58.74
69823;SHT31;57119;52.516;13.508;2024-03-07T09:26:49;17.40;57.85
69823;SHT31;57119;52.516;13.508;2024-03-07T09:29:15;17.17;57.37
69823;SHT31;57119;52.516;13.508;2024-03-07T09:31:41;17.15;57.08
69823;SHT31;57119;52.516;13.508;2024-03-07T09:34:07;17.10;56.32
69823;SHT31;57119;52.516;13.508;2024-03-07T09:36:33;16.90;56.30
69823;SHT31;57119;52.516;13.508;2024-03-07T09:38:59;15.36;59.33
69823;SHT31;57119;52.516;13.508;2024-03-07T09:41:24;15.64;58.38
69823;SHT31;57119;52.516;13.508;2024-03-07T09:43:51;17.00;57.78
69823;SHT31;57119;52.516;13.508;2024-03-07T09:46:24;17.85;55.34
69823;SHT31;57119;52.516;13.508;2024-03-07T09:48:50;16.12;56.74
69823;SHT31;57119;52.516;13.508;2024-03-07T09:51:20;17.29;55.24
69823;SHT31;57119;52.516;13.508;2024-03-07T09:53:51;16.71;56.46
69823;SHT31;57119;52.516;13.508;2024-03-07T09:56:22;17.36;55.61
69823;SHT31;57119;52.516;13.508;2024-03-07T09:58:52;14.51;58.45
69823;SHT31;57119;52.516;13.508;2024-03-07T10:01:25;16.70;55.84
69823;SHT31;57119;52.516;13.508;2024-03-07T10:03:58;15.39;55.83
69823;SHT31;57119;52.516;13.508;2024-03-07T10:06:24;16.98;55.91
69823;SHT31;57119;52.516;13.508;2024-03-07T10:08:50;17.10;55.21
69823;SHT31;57119;52.516;13.508;2024-03-07T10:11:15;18.17;53.79
69823;SHT31;57119;52.516;13.508;2024-03-07T10:13:40;18.13;53.40
69823;SHT31;57119;52.516;13.508;2024-03-07T10:16:06;17.80;54.61
69823;SHT31;57119;52.516;13.508;2024-03-07T10:18:35;17.97;52.01
69823;SHT31;57119;52.516;13.508;2024-03-07T10:21:06;18.23;52.69
69823;SHT31;57119;52.516;13.508;2024-03-07T10:23:31;18.95;51.15
69823;SHT31;57119;52.516;13.508;2024-03-07T10:25:59;16.97;51.38
69823;SHT31;57119;52.516;13.508;2024-03-07T10:28:26;16.88;54.31
69823;SHT31;57119;52.516;13.508;2024-03-07T10:30:52;16.80;53.85
69823;SHT31;57119;52.516;13.508;2024-03-07T10:33:17;18.18;53.47
69823;SHT31;57119;52.516;13.508;2024-03-07T10:35:46;19.10;51.45
69823;SHT31;57119;52.516;13.508;2024-03-07T10:38:12;17.52;51.11
69823;SHT31;57119;52.516;13.508;2024-03-07T10:40:38;16.25;54.49
69823;SHT31;57119;52.516;13.508;2024-03-07T10:43:09;18.35;52.70
69823;SHT31;57119;52.516;13.508;2024-03-07T10:45:40;18.49;52.42
69823;SHT31;57119;52.516;13.508;2024-03-07T10:48:11;18.69;50.30
69823;SHT31;57119;52.516;13.508;2024-03-07T10:56:33;18.11;52.46
69823;SHT31;57119;52.516;13.508;2024-03-07T10:59:15;18.62;50.52
69823;SHT31;57119;52.516;13.508;2024-03-07T11:02:14;19.79;50.11
69823;SHT31;57119;52.516;13.508;2024-03-07T11:04:41;19.33;50.13
69823;SHT31;57119;52.516;13.508;2024-03-07T11:07:07;21.18;48.78
69823;SHT31;57119;52.516;13.508;2024-03-07T11:09:33;20.37;49.30
69823;SHT31;57119;52.516;13.508;2024-03-07T11:12:00;18.86;49.94
69823;SHT31;57119;52.516;13.508;2024-03-07T11:14:29;19.75;50.38
69823;SHT31;57119;52.516;13.508;2024-03-07T11:16:55;18.51;50.67
69823;SHT31;57119;52.516;13.508;2024-03-07T11:19:27;20.37;49.86
69823;SHT31;57119;52.516;13.508;2024-03-07T11:21:56;18.20;50.82
69823;SHT31;57119;52.516;13.508;2024-03-07T11:24:26;19.61;49.39
69823;SHT31;57119;52.516;13.508;2024-03-07T11:26:55;20.05;49.03
69823;SHT31;57119;52.516;13.508;2024-03-07T11:32:15;19.54;48.74
69823;SHT31;57119;52.516;13.508;2024-03-07T11:34:42;20.96;48.93
69823;SHT31;57119;52.516;13.508;2024-03-07T11:37:17;21.45;48.31
69823;SHT31;57119;52.516;13.508;2024-03-07T11:39:46;20.88;48.80
69823;SHT31;57119;52.516;13.508;2024-03-07T11:42:29;20.25;49.16
69823;SHT31;57119;52.516;13.508;2024-03-07T11:44:57;19.09;49.27
69823;SHT31;57119;52.516;13.508;2024-03-07T11:47:25;16.79;50.76
69823;SHT31;57119;52.516;13.508;2024-03-07T11:49:54;17.86;52.47
69823;SHT31;57119;52.516;13.508;2024-03-07T11:52:19;19.20;50.68
69823;SHT31;57119;52.516;13.508;2024-03-07T11:54:45;17.28;52.19
69823;SHT31;57119;52.516;13.508;2024-03-07T11:57:17;16.92;53.63
69823;SHT31;57119;52.516;13.508;2024-03-07T11:59:45;18.82;51.16
69823;SHT31;57119;52.516;13.508;2024-03-07T12:02:14;19.47;49.10
69823;SHT31;57119;52.516;13.508;2024-03-07T12:04:49;17.46;50.15
69823;SHT31;57119;52.516;13.508;2024-03-07T12:07:18;19.35;50.01
69823;SHT31;57119;52.516;13.508;2024-03-07T12:09:44;19.07;50.74
69823;SHT31;57119;52.516;13.508;2024-03-07T12:12:17;19.93;49.74
69823;SHT31;57119;52.516;13.508;2024-03-07T12:14:43;20.32;48.69
69823;SHT31;57119;52.516;13.508;2024-03-07T12:17:09;20.17;47.58
69823;SHT31;57119;52.516;13.508;2024-03-07T12:19:35;19.41;48.42
69823;SHT31;57119;52.516;13.508;2024-03-07T12:22:03;21.87;47.15
69823;SHT31;57119;52.516;13.508;2024-03-07T12:24:29;21.70;45.88
69823;SHT31;57119;52.516;13.508;2024-03-07T12:27:05;20.26;47.36
69823;SHT31;57119;52.516;13.508;2024-03-07T12:29:31;19.69;48.72
69823;SHT31;57119;52.516;13.508;2024-03-07T12:31:56;20.05;46.94
69823;SHT31;57119;52.516;13.508;2024-03-07T12:34:22;17.40;49.17
69823;SHT31;57119;52.516;13.508;2024-03-07T12:36:51;17.86;48.57
69823;SHT31;57119;52.516;13.508;2024-03-07T12:39:24;17.10;48.31
69823;SHT31;57119;52.516;13.508;2024-03-07T12:41:52;18.14;49.60
69823;SHT31;57119;52.516;13.508;2024-03-07T12:44:20;18.91;47.58
69823;SHT31;57119;52.516;13.508;2024-03-07T12:46:47;19.83;47.65
69823;SHT31;57119;52.516;13.508;2024-03-07T12:49:16;20.68;46.66
69823;SHT31;57119;52.516;13.508;2024-03-07T12:51:42;18.10;47.48
69823;SHT31;57119;52.516;13.508;2024-03-07T12:54:08;19.58;48.67
69823;SHT31;57119;52.516;13.508;2024-03-07T12:56:36;19.95;46.23
69823;SHT31;57119;52.516;13.508;2024-03-07T12:59:05;20.39;47.30
69823;SHT31;57119;52.516;13.508;2024-03-07T13:01:35;21.14;46.90
69823;SHT31;57119;52.516;13.508;2024-03-07T13:04:03;18.98;47.16
69823;SHT31;57119;52.516;13.508;2024-03-07T13:06:29;19.46;47.90
69823;SHT31;57119;52.516;13.508;2024-03-07T13:08:55;19.47;49.90
69823;SHT31;57119;52.516;13.508;2024-03-07T13:11:24;20.77;46.13
69823;SHT31;57119;52.516;13.508;2024-03-07T13:13:53;20.23;45.79
69823;SHT31;57119;52.516;13.508;2024-03-07T13:16:18;18.07;46.83
69823;SHT31;57119;52.516;13.508;2024-03-07T13:18:44;17.73;46.80
69823;SHT31;57119;52.516;13.508;2024-03-07T13:21:11;19.37;46.19
69823;SHT31;57119;52.516;13.508;2024-03-07T13:23:39;20.60;45.40
69823;SHT31;57119;52.516;13.508;2024-03-07T13:26:05;22.21;44.65
69823;SHT31;57119;52.516;13.508;2024-03-07T13:28:36;19.74;45.23
69823;SHT31;57119;52.516;13.508;2024-03-07T13:31:01;20.83;45.86
69823;SHT31;57119;52.516;13.508;2024-03-07T13:33:28;19.14;46.52
69823;SHT31;57119;52.516;13.508;2024-03-07T13:35:54;20.12;46.11
69823;SHT31;57119;52.516;13.508;2024-03-07T13:38:20;19.60;46.72
69823;SHT31;57119;52.516;13.508;2024-03-07T13:40:45;19.19;45.74
69823;SHT31;57119;52.516;13.508;2024-03-07T13:43:11;17.04;48.85
69823;SHT31;57119;52.516;13.508;2024-03-07T13:45:36;18.51;47.58
69823;SHT31;57119;52.516;13.508;2024-03-07T13:48:07;19.58;46.74
69823;SHT31;57119;52.516;13.508;2024-03-07T13:50:34;19.69;45.58
69823;SHT31;57119;52.516;13.508;2024-03-07T13:53:00;19.54;46.18
69823;SHT31;57119;52.516;13.508;2024-03-07T14:06:34;18.00;47.74
69823;SHT31;57119;52.516;13.508;2024-03-07T14:18:18;18.23;48.35
69823;SHT31;57119;52.516;13.508;2024-03-07T14:20:59;17.79;50.40
69823;SHT31;57119;52.516;13.508;2024-03-07T14:23:41;18.28;49.60
69823;SHT31;57119;52.516;13.508;2024-03-07T14:29:26;17.12;49.60
69823;SHT31;57119;52.516;13.508;2024-03-07T14:31:53;16.12;50.57
69823;SHT31;57119;52.516;13.508;2024-03-07T14:36:57;16.52;50.82
69823;SHT31;57119;52.516;13.508;2024-03-07T14:39:27;16.46;51.86
69823;SHT31;57119;52.516;13.508;2024-03-07T14:42:01;17.31;50.18
69823;SHT31;57119;52.516;13.508;2024-03-07T14:44:28;14.96;53.03
69823;SHT31;57119;52.516;13.508;2024-03-07T14:46:58;16.56;52.39
69823;SHT31;57119;52.516;13.508;2024-03-07T14:49:26;17.65;51.37
69823;SHT31;57119;52.516;13.508;2024-03-07T14:51:53;17.10;50.99
69823;SHT31;57119;52.516;13.508;2024-03-07T14:54:20;17.77;50.55
69823;SHT31;57119;52.516;13.508;2024-03-07T14:56:46;17.07;51.40
69823;SHT31;57119;52.516;13.508;2024-03-07T14:59:12;16.90;51.50
69823;SHT31;57119;52.516;13.508;2024-03-07T15:01:38;16.90;51.25
69823;SHT31;57119;52.516;13.508;2024-03-07T15:04:04;15.29;51.49
69823;SHT31;57119;52.516;13.508;2024-03-07T15:06:34;16.13;52.61
69823;SHT31;57119;52.516;13.508;2024-03-07T15:09:01;16.85;51.38
69823;SHT31;57119;52.516;13.508;2024-03-07T15:11:34;15.95;51.40
69823;SHT31;57119;52.516;13.508;2024-03-07T15:13:59;15.44;52.60
69823;SHT31;57119;52.516;13.508;2024-03-07T15:16:27;15.68;52.95
69823;SHT31;57119;52.516;13.508;2024-03-07T15:18:53;14.68;52.57
69823;SHT31;57119;52.516;13.508;2024-03-07T15:21:19;14.79;54.30
69823;SHT31;57119;52.516;13.508;2024-03-07T15:23:46;14.37;53.31
69823;SHT31;57119;52.516;13.508;2024-03-07T15:26:11;15.56;52.94
69823;SHT31;57119;52.516;13.508;2024-03-07T15:28:37;15.13;52.92
69823;SHT31;57119;52.516;13.508;2024-03-07T15:31:03;15.33;52.61
69823;SHT31;57119;52.516;13.508;2024-03-07T15:33:32;13.54;53.95
69823;SHT31;57119;52.516;13.508;2024-03-07T15:35:58;13.35;55.35
69823;SHT31;57119;52.516;13.508;2024-03-07T15:38:23;13.61;55.44
69823;SHT31;57119;52.516;13.508;2024-03-07T15:40:59;13.08;56.26
69823;SHT31;57119;52.516;13.508;2024-03-07T15:43:26;12.59;56.26
69823;SHT31;57119;52.516;13.508;2024-03-07T15:45:53;13.73;56.10
69823;SHT31;57119;52.516;13.508;2024-03-07T15:48:19;13.37;56.60
69823;SHT31;57119;52.516;13.508;2024-03-07T15:50:49;12.77;57.27
69823;SHT31;57119;52.516;13.508;2024-03-07T15:53:15;13.18;57.08
69823;SHT31;57119;52.516;13.508;2024-03-07T15:55:40;12.75;57.41